Terminal Aerodrome Forecast
Issued by NWS

Current Version | Previous Version | Graphics & Text | Print | Product List | Glossary On
Versions: 1 2 3 4 5 6 7 8 9 10 11 12 13 14 15 16 17 18 19 20 21 22 23 24 25 26 27 28 29 30 31 32
000
FTUS41 KRNK 261724
TAFLWB
TAF
KLWB 261724Z 2618/2718 20005KT P6SM VCSH SCT045 BKN100
      TEMPO 2620/2623 3SM TSRA BKN025CB
     FM270000 20003KT P6SM BKN050 OVC250
     FM270800 00000KT 4SM SHRA BR SCT025 OVC040
     FM271400 25005KT P6SM SCT015 BKN035=

USA.gov is the U.S. government's official web portal to all federal, state and local government web resources and services.